Time;durP1;ratioP1;P1;durP2;ratioP2;P2;SDS_P1;SDS_P2;PMS_P1;PMS_P2;Temp;Humidity;BMP_temperature;BMP_pressure;BME280_temperature;BME280_humidity;BME280_pressure;Samples;Min_cycle;Max_cycle;Signal;HPM_P1;HPM_P2
2023/04/20 00:00:01;;;;;;;3.72;2.90;;;;;;;;;;4968136;28;20019;-74
2023/04/20 00:02:26;;;;;;;4.55;3.13;;;;;;;;;;4973308;28;20105;-76
2023/04/20 00:04:52;;;;;;;3.78;3.08;;;;;;;;;;4968037;28;20026;-76
2023/04/20 00:07:18;;;;;;;4.30;2.88;;;;;;;;;;4967571;28;20102;-76
2023/04/20 00:09:43;;;;;;;3.28;2.70;;;;;;;;;;4972015;28;20022;-76
2023/04/20 00:12:09;;;;;;;5.10;3.08;;;;;;;;;;4968174;28;20778;-75
2023/04/20 00:14:34;;;;;;;5.05;2.80;;;;;;;;;;4967931;28;20034;-75
2023/04/20 00:17:00;;;;;;;4.60;3.03;;;;;;;;;;4972288;28;20023;-75
2023/04/20 00:19:27;;;;;;;3.97;2.90;;;;;;;;;;4969997;28;20026;-75
2023/04/20 00:21:52;;;;;;;4.63;3.33;;;;;;;;;;4974043;28;20117;-75
2023/04/20 00:24:18;;;;;;;4.22;2.92;;;;;;;;;;4976513;28;20059;-74
2023/04/20 00:26:43;;;;;;;3.15;2.53;;;;;;;;;;4972073;28;20054;-74
2023/04/20 00:29:08;;;;;;;4.18;2.97;;;;;;;;;;4970836;28;20023;-76
2023/04/20 00:31:34;;;;;;;3.47;3.15;;;;;;;;;;4971688;28;20479;-76
2023/04/20 00:33:59;;;;;;;4.05;3.30;;;;;;;;;;4975199;28;20022;-74
2023/04/20 00:36:25;;;;;;;3.42;2.67;;;;;;;;;;4972153;28;20038;-76
2023/04/20 00:38:51;;;;;;;3.10;2.33;;;;;;;;;;4971709;28;20027;-75
2023/04/20 00:41:16;;;;;;;2.10;1.90;;;;;;;;;;4971208;28;20483;-75
2023/04/20 00:43:52;;;;;;;3.03;1.77;;;;;;;;;;4971483;28;20033;-76
2023/04/20 00:46:18;;;;;;;2.72;1.88;;;;;;;;;;4975285;28;20019;-76
2023/04/20 00:48:44;;;;;;;2.05;1.85;;;;;;;;;;4972717;28;20491;-75
2023/04/20 00:51:10;;;;;;;2.78;2.00;;;;;;;;;;4971874;28;20054;-75
2023/04/20 00:53:35;;;;;;;3.70;2.40;;;;;;;;;;4969607;28;20053;-76
2023/04/20 00:56:01;;;;;;;1.42;1.33;;;;;;;;;;4970846;28;20053;-75
2023/04/20 00:58:27;;;;;;;2.47;2.28;;;;;;;;;;4967177;28;20019;-76
2023/04/20 01:00:52;;;;;;;3.05;2.35;;;;;;;;;;4973048;28;20390;-75
2023/04/20 01:03:18;;;;;;;4.05;2.53;;;;;;;;;;4970272;28;20027;-75
2023/04/20 01:05:43;;;;;;;3.38;2.88;;;;;;;;;;4985424;28;20491;-75
2023/04/20 01:08:09;;;;;;;3.55;2.40;;;;;;;;;;4969855;28;20041;-75
2023/04/20 01:10:35;;;;;;;4.05;3.10;;;;;;;;;;4971020;28;20085;-75
2023/04/20 01:13:00;;;;;;;4.88;3.55;;;;;;;;;;4968228;28;20546;-76
2023/04/20 01:15:25;;;;;;;4.18;3.58;;;;;;;;;;4971315;28;20026;-75
2023/04/20 01:17:52;;;;;;;4.05;3.03;;;;;;;;;;4975333;28;20194;-75
2023/04/20 01:20:22;;;;;;;5.32;3.42;;;;;;;;;;4972937;28;20094;-75
2023/04/20 01:22:50;;;;;;;4.43;3.17;;;;;;;;;;4969746;28;20023;-74
2023/04/20 01:25:16;;;;;;;4.43;3.28;;;;;;;;;;4971150;28;20058;-74
2023/04/20 01:27:42;;;;;;;4.15;3.50;;;;;;;;;;4970528;28;20390;-75
2023/04/20 01:30:08;;;;;;;4.45;3.53;;;;;;;;;;4968360;28;20086;-74
2023/04/20 01:32:33;;;;;;;4.50;3.50;;;;;;;;;;4974866;28;20414;-76
2023/04/20 01:35:00;;;;;;;4.82;3.50;;;;;;;;;;4969523;28;20030;-76
2023/04/20 01:37:25;;;;;;;5.70;3.30;;;;;;;;;;4965417;28;20113;-76
2023/04/20 01:39:51;;;;;;;4.35;3.38;;;;;;;;;;4970675;28;20098;-76
2023/04/20 01:42:16;;;;;;;5.35;3.83;;;;;;;;;;4971681;28;20023;-76
2023/04/20 01:44:41;;;;;;;4.38;3.60;;;;;;;;;;4972936;28;20035;-75
2023/04/20 01:47:07;;;;;;;4.75;3.40;;;;;;;;;;4969317;28;20483;-76
2023/04/20 01:49:32;;;;;;;4.63;3.50;;;;;;;;;;4969326;28;20089;-76
2023/04/20 01:51:57;;;;;;;3.47;3.10;;;;;;;;;;4970619;28;20073;-75
2023/04/20 01:54:23;;;;;;;5.72;3.40;;;;;;;;;;4970187;28;21522;-76
2023/04/20 01:56:48;;;;;;;4.70;3.80;;;;;;;;;;4985002;28;20037;-76
2023/04/20 01:59:14;;;;;;;4.38;3.50;;;;;;;;;;4970026;28;20033;-76
2023/04/20 02:01:39;;;;;;;7.28;4.15;;;;;;;;;;4970186;28;20511;-75
2023/04/20 02:04:04;;;;;;;6.80;3.75;;;;;;;;;;4972693;28;20069;-76
2023/04/20 02:06:30;;;;;;;5.22;3.78;;;;;;;;;;4971299;28;20913;-75
2023/04/20 02:08:56;;;;;;;6.10;4.30;;;;;;;;;;4969247;28;20027;-75
2023/04/20 02:11:21;;;;;;;4.00;3.42;;;;;;;;;;4974324;28;20022;-76
2023/04/20 02:13:46;;;;;;;5.25;3.72;;;;;;;;;;4970108;28;20072;-76
2023/04/20 02:16:12;;;;;;;4.80;3.40;;;;;;;;;;4974953;28;20034;-75
2023/04/20 02:18:38;;;;;;;6.53;3.88;;;;;;;;;;4966973;28;20806;-75
2023/04/20 02:21:04;;;;;;;5.18;3.65;;;;;;;;;;4967032;28;20038;-75
2023/04/20 02:23:30;;;;;;;4.65;3.50;;;;;;;;;;4976875;28;20022;-75
2023/04/20 02:25:55;;;;;;;5.28;3.70;;;;;;;;;;4969352;28;20022;-75
2023/04/20 02:28:20;;;;;;;5.95;3.42;;;;;;;;;;4969975;28;20026;-75
2023/04/20 02:30:46;;;;;;;4.70;3.25;;;;;;;;;;4974253;28;20054;-75
2023/04/20 02:33:11;;;;;;;4.80;3.33;;;;;;;;;;4969591;28;20026;-76
2023/04/20 02:35:37;;;;;;;7.45;3.95;;;;;;;;;;4969200;28;20086;-75
2023/04/20 02:38:03;;;;;;;5.78;3.85;;;;;;;;;;4974028;28;20037;-76
2023/04/20 02:40:28;;;;;;;5.35;3.88;;;;;;;;;;4969191;28;20026;-75
2023/04/20 02:42:54;;;;;;;5.95;3.58;;;;;;;;;;4969559;28;20027;-75
2023/04/20 02:45:19;;;;;;;5.13;2.92;;;;;;;;;;4971622;28;20066;-75
2023/04/20 02:47:45;;;;;;;4.75;3.45;;;;;;;;;;4971747;28;20662;-74
2023/04/20 02:50:11;;;;;;;5.65;3.72;;;;;;;;;;4969910;28;20030;-74
2023/04/20 02:52:36;;;;;;;5.38;3.83;;;;;;;;;;4968715;28;20037;-75
2023/04/20 02:55:02;;;;;;;5.25;3.63;;;;;;;;;;4968383;28;20734;-76
2023/04/20 02:57:27;;;;;;;6.35;4.15;;;;;;;;;;4969251;28;20027;-75
2023/04/20 02:59:53;;;;;;;5.35;3.95;;;;;;;;;;4984125;28;20033;-75
2023/04/20 03:02:18;;;;;;;4.63;3.65;;;;;;;;;;4972088;28;20458;-76
2023/04/20 03:04:43;;;;;;;5.63;3.78;;;;;;;;;;4968510;28;20026;-76
2023/04/20 03:07:09;;;;;;;5.65;3.83;;;;;;;;;;4967429;28;20106;-75
2023/04/20 03:09:35;;;;;;;6.22;4.22;;;;;;;;;;4969316;28;20625;-75
2023/04/20 03:12:01;;;;;;;4.80;3.85;;;;;;;;;;4971521;28;20383;-75
2023/04/20 03:14:27;;;;;;;5.68;4.38;;;;;;;;;;4967861;28;20018;-75
2023/04/20 03:16:52;;;;;;;6.60;4.82;;;;;;;;;;4968463;28;20792;-75
2023/04/20 03:19:18;;;;;;;7.07;4.68;;;;;;;;;;4968892;28;20022;-75
2023/04/20 03:21:44;;;;;;;9.90;5.18;;;;;;;;;;4967563;28;20022;-75
2023/04/20 03:24:09;;;;;;;9.48;5.00;;;;;;;;;;4967500;28;20027;-75
2023/04/20 03:26:35;;;;;;;9.32;5.75;;;;;;;;;;4964617;28;20034;-75
2023/04/20 03:29:01;;;;;;;8.32;5.70;;;;;;;;;;4965512;28;20623;-74
2023/04/20 03:31:26;;;;;;;7.57;5.32;;;;;;;;;;4968950;28;20049;-75
2023/04/20 03:33:52;;;;;;;5.60;4.05;;;;;;;;;;4966936;28;20031;-75
2023/04/20 03:36:17;;;;;;;8.95;5.78;;;;;;;;;;4968298;28;20034;-75
2023/04/20 03:38:42;;;;;;;9.40;5.65;;;;;;;;;;4973129;28;20531;-75
2023/04/20 03:41:08;;;;;;;10.18;5.70;;;;;;;;;;4972237;28;20086;-75
2023/04/20 03:43:34;;;;;;;10.05;6.18;;;;;;;;;;4974780;28;20026;-75
2023/04/20 03:45:59;;;;;;;10.88;5.78;;;;;;;;;;4974707;28;20070;-74
2023/04/20 03:48:24;;;;;;;9.88;5.40;;;;;;;;;;4970057;28;20066;-75
2023/04/20 03:50:50;;;;;;;7.85;5.82;;;;;;;;;;4967173;28;20499;-74
2023/04/20 03:53:15;;;;;;;9.23;6.18;;;;;;;;;;4965423;28;20093;-75
2023/04/20 03:55:41;;;;;;;9.05;6.00;;;;;;;;;;4967614;28;20479;-76
2023/04/20 03:58:07;;;;;;;9.35;5.95;;;;;;;;;;4967916;28;20030;-75
2023/04/20 04:00:32;;;;;;;9.48;6.15;;;;;;;;;;4969337;28;20026;-75
2023/04/20 04:02:58;;;;;;;8.05;5.80;;;;;;;;;;4967128;28;20033;-75
2023/04/20 04:05:24;;;;;;;8.98;6.10;;;;;;;;;;4969245;28;20037;-75
2023/04/20 04:07:50;;;;;;;8.77;5.53;;;;;;;;;;4968372;28;20049;-75
2023/04/20 04:10:17;;;;;;;10.35;5.90;;;;;;;;;;4967994;28;20034;-74
2023/04/20 04:12:43;;;;;;;10.85;6.60;;;;;;;;;;4988636;28;20031;-75
2023/04/20 04:15:09;;;;;;;11.30;6.28;;;;;;;;;;4968205;28;20033;-74
2023/04/20 04:17:35;;;;;;;10.30;6.28;;;;;;;;;;4971022;28;20027;-74
2023/04/20 04:20:00;;;;;;;8.27;5.18;;;;;;;;;;4967627;28;20653;-75
2023/04/20 04:22:25;;;;;;;11.80;7.22;;;;;;;;;;4967608;28;20227;-75
2023/04/20 04:24:53;;;;;;;9.38;6.47;;;;;;;;;;4967511;28;20026;-75
2023/04/20 04:27:19;;;;;;;10.20;6.57;;;;;;;;;;4967433;28;20019;-76
2023/04/20 04:29:45;;;;;;;11.40;7.15;;;;;;;;;;4964388;28;20042;-77
2023/04/20 04:32:11;;;;;;;12.77;7.80;;;;;;;;;;4983024;28;20077;-77
2023/04/20 04:34:37;;;;;;;14.18;7.88;;;;;;;;;;4966355;28;20023;-77
2023/04/20 04:37:02;;;;;;;12.52;7.85;;;;;;;;;;4970536;28;20031;-77
2023/04/20 04:39:29;;;;;;;11.48;6.45;;;;;;;;;;4969927;28;20034;-77
2023/04/20 04:41:54;;;;;;;14.38;7.90;;;;;;;;;;4968866;28;20031;-76
2023/04/20 04:44:20;;;;;;;13.52;8.68;;;;;;;;;;4967199;28;20023;-77
2023/04/20 04:46:46;;;;;;;13.73;8.00;;;;;;;;;;4969760;28;20027;-76
2023/04/20 04:49:12;;;;;;;14.32;8.23;;;;;;;;;;4971048;28;20034;-77
2023/04/20 04:51:37;;;;;;;14.32;7.95;;;;;;;;;;4969957;28;20026;-78
2023/04/20 04:54:03;;;;;;;13.10;7.85;;;;;;;;;;4962100;28;20507;-77
2023/04/20 04:56:28;;;;;;;14.18;7.97;;;;;;;;;;4970445;28;20086;-77
2023/04/20 04:58:53;;;;;;;13.30;8.40;;;;;;;;;;4970896;28;20034;-77
2023/04/20 05:01:20;;;;;;;12.95;7.97;;;;;;;;;;4971163;28;20039;-77
2023/04/20 05:03:45;;;;;;;15.15;7.75;;;;;;;;;;4970944;28;20053;-77
2023/04/20 05:06:10;;;;;;;11.70;7.68;;;;;;;;;;4971108;28;20495;-78
2023/04/20 05:08:36;;;;;;;14.75;8.55;;;;;;;;;;4974419;28;20037;-77
2023/04/20 05:11:01;;;;;;;14.27;8.70;;;;;;;;;;4976234;28;20034;-77
2023/04/20 05:13:27;;;;;;;15.15;9.10;;;;;;;;;;4970747;28;20026;-78
2023/04/20 05:15:52;;;;;;;14.90;8.38;;;;;;;;;;4984935;28;20023;-78
2023/04/20 05:18:17;;;;;;;16.90;8.77;;;;;;;;;;4972045;28;20367;-78
2023/04/20 05:20:43;;;;;;;15.43;8.40;;;;;;;;;;4972581;28;20077;-78
2023/04/20 05:23:08;;;;;;;16.30;8.57;;;;;;;;;;4988296;28;20027;-77
2023/04/20 05:25:34;;;;;;;16.70;8.95;;;;;;;;;;4968471;28;20118;-77
2023/04/20 05:27:59;;;;;;;14.45;8.43;;;;;;;;;;4970814;28;20033;-77
2023/04/20 05:30:25;;;;;;;16.63;9.38;;;;;;;;;;4978018;28;20241;-77
2023/04/20 05:32:50;;;;;;;13.88;8.45;;;;;;;;;;4965520;28;20022;-77
2023/04/20 05:35:16;;;;;;;15.88;9.20;;;;;;;;;;4974243;28;20046;-77
2023/04/20 05:37:41;;;;;;;15.60;8.63;;;;;;;;;;4967765;28;20038;-77
2023/04/20 05:40:08;;;;;;;14.07;8.45;;;;;;;;;;4971899;28;20054;-77
2023/04/20 05:42:33;;;;;;;18.00;9.85;;;;;;;;;;4970721;28;20027;-76
2023/04/20 05:44:59;;;;;;;17.73;9.48;;;;;;;;;;4968516;28;20026;-75
2023/04/20 05:47:26;;;;;;;17.30;9.60;;;;;;;;;;4966914;28;20027;-75
2023/04/20 05:49:52;;;;;;;16.60;9.00;;;;;;;;;;4969724;28;20037;-76
2023/04/20 05:52:17;;;;;;;14.95;8.73;;;;;;;;;;4970627;28;20027;-76
2023/04/20 05:54:42;;;;;;;14.43;8.45;;;;;;;;;;4968092;28;20030;-77
2023/04/20 05:57:08;;;;;;;12.20;6.85;;;;;;;;;;4969253;28;20038;-76
2023/04/20 05:59:33;;;;;;;14.88;7.93;;;;;;;;;;4967653;28;20372;-76
2023/04/20 06:01:59;;;;;;;15.43;7.85;;;;;;;;;;4966063;28;20041;-76
2023/04/20 06:04:24;;;;;;;16.95;8.30;;;;;;;;;;4969277;28;20015;-76
2023/04/20 06:06:50;;;;;;;14.32;8.40;;;;;;;;;;4967235;28;20015;-76
2023/04/20 06:09:16;;;;;;;14.45;8.30;;;;;;;;;;4967992;28;20037;-76
2023/04/20 06:11:41;;;;;;;13.52;8.23;;;;;;;;;;4967369;28;20023;-74
2023/04/20 06:14:07;;;;;;;13.88;7.45;;;;;;;;;;4969560;28;20026;-75
2023/04/20 06:16:32;;;;;;;12.57;8.07;;;;;;;;;;4970082;28;20026;-75
2023/04/20 06:18:57;;;;;;;12.90;7.18;;;;;;;;;;4970133;28;20113;-75
2023/04/20 06:21:23;;;;;;;13.13;7.93;;;;;;;;;;4969722;28;20022;-75
2023/04/20 06:23:49;;;;;;;12.98;7.53;;;;;;;;;;4969672;28;20030;-74
2023/04/20 06:26:14;;;;;;;12.32;7.18;;;;;;;;;;4970741;28;20026;-75
2023/04/20 06:28:40;;;;;;;12.50;7.25;;;;;;;;;;4971871;28;20097;-74
2023/04/20 06:31:06;;;;;;;10.77;7.50;;;;;;;;;;4968737;28;20045;-75
2023/04/20 06:33:31;;;;;;;13.07;8.65;;;;;;;;;;4969314;28;20073;-74
2023/04/20 06:35:57;;;;;;;13.00;7.80;;;;;;;;;;4969047;28;20031;-75
2023/04/20 06:38:24;;;;;;;14.43;7.57;;;;;;;;;;4969648;28;20022;-74
2023/04/20 06:40:49;;;;;;;10.63;6.82;;;;;;;;;;4983690;28;20022;-75
2023/04/20 06:43:15;;;;;;;14.93;7.60;;;;;;;;;;4969243;28;20049;-74
2023/04/20 06:45:40;;;;;;;12.38;7.50;;;;;;;;;;4976633;28;20025;-74
2023/04/20 06:48:06;;;;;;;14.05;7.20;;;;;;;;;;4973979;28;20031;-75
2023/04/20 06:50:31;;;;;;;16.15;7.78;;;;;;;;;;4969076;28;20036;-74
2023/04/20 06:52:56;;;;;;;13.57;7.53;;;;;;;;;;4971272;28;20022;-75
2023/04/20 06:55:22;;;;;;;9.85;5.47;;;;;;;;;;4968881;28;20442;-75
2023/04/20 06:57:47;;;;;;;14.02;6.97;;;;;;;;;;4969070;28;20018;-73
2023/04/20 07:00:13;;;;;;;13.70;7.57;;;;;;;;;;4969984;28;20026;-74
2023/04/20 07:02:47;;;;;;;14.43;7.72;;;;;;;;;;4963746;28;20022;-75
2023/04/20 07:05:13;;;;;;;14.30;7.57;;;;;;;;;;4968071;28;20033;-74
2023/04/20 07:07:40;;;;;;;16.25;8.15;;;;;;;;;;4983424;28;20027;-74
2023/04/20 07:10:07;;;;;;;15.07;8.52;;;;;;;;;;4983494;28;20034;-74
2023/04/20 07:12:35;;;;;;;13.50;8.13;;;;;;;;;;4968574;28;20098;-74
2023/04/20 07:15:04;;;;;;;14.38;8.18;;;;;;;;;;4968235;28;20406;-74
2023/04/20 07:17:30;;;;;;;13.00;8.20;;;;;;;;;;4964018;28;20022;-74
2023/04/20 07:19:56;;;;;;;11.32;7.25;;;;;;;;;;4983525;28;20037;-74
2023/04/20 07:22:22;;;;;;;12.15;8.05;;;;;;;;;;4969366;28;20023;-75
2023/04/20 07:24:48;;;;;;;13.00;7.43;;;;;;;;;;4972327;28;20019;-73
2023/04/20 07:27:13;;;;;;;14.07;8.00;;;;;;;;;;4968367;28;20085;-74
2023/04/20 07:29:38;;;;;;;11.00;6.22;;;;;;;;;;4970473;28;20125;-74
2023/04/20 07:32:04;;;;;;;10.95;7.45;;;;;;;;;;4972623;28;20026;-74
2023/04/20 07:34:30;;;;;;;12.43;7.95;;;;;;;;;;4971126;28;20479;-74
2023/04/20 07:36:55;;;;;;;11.60;7.88;;;;;;;;;;4967050;28;20125;-74
2023/04/20 07:39:20;;;;;;;13.45;8.18;;;;;;;;;;4967887;28;20084;-75
2023/04/20 07:41:46;;;;;;;13.13;8.88;;;;;;;;;;4971219;28;20026;-75
2023/04/20 07:44:14;;;;;;;11.18;7.53;;;;;;;;;;4968026;28;20109;-75
2023/04/20 07:46:40;;;;;;;12.52;8.13;;;;;;;;;;4966643;28;20019;-74
2023/04/20 07:49:06;;;;;;;16.08;10.15;;;;;;;;;;4968169;28;20023;-75
2023/04/20 07:51:33;;;;;;;15.13;9.32;;;;;;;;;;4968382;28;20045;-75
2023/04/20 07:53:58;;;;;;;16.38;9.98;;;;;;;;;;4968041;28;20045;-74
2023/04/20 07:56:24;;;;;;;12.77;8.35;;;;;;;;;;4970662;28;20111;-74
2023/04/20 07:58:49;;;;;;;16.88;9.98;;;;;;;;;;4967636;28;20019;-76
2023/04/20 08:01:15;;;;;;;16.50;10.07;;;;;;;;;;4970148;28;20066;-75
2023/04/20 08:03:40;;;;;;;19.98;10.60;;;;;;;;;;4971254;28;20387;-74
2023/04/20 08:06:06;;;;;;;13.57;9.30;;;;;;;;;;4967853;28;20507;-74
2023/04/20 08:08:31;;;;;;;16.35;9.90;;;;;;;;;;4967157;28;20026;-74
2023/04/20 08:11:00;;;;;;;17.75;10.40;;;;;;;;;;4966902;28;20412;-75
2023/04/20 08:13:26;;;;;;;15.68;9.35;;;;;;;;;;4982432;28;20023;-75
2023/04/20 08:15:51;;;;;;;16.63;9.25;;;;;;;;;;4973071;28;20094;-74
2023/04/20 08:18:17;;;;;;;14.88;9.68;;;;;;;;;;4968828;28;20035;-74
2023/04/20 08:20:42;;;;;;;14.90;8.68;;;;;;;;;;4967296;28;20019;-75
2023/04/20 08:23:07;;;;;;;14.35;8.45;;;;;;;;;;4967754;28;20476;-75
2023/04/20 08:25:33;;;;;;;13.13;8.57;;;;;;;;;;4967266;28;20027;-75
2023/04/20 08:27:58;;;;;;;15.55;8.13;;;;;;;;;;4982735;28;20019;-74
2023/04/20 08:30:25;;;;;;;15.07;7.90;;;;;;;;;;4970386;28;20049;-74
2023/04/20 08:32:50;;;;;;;15.15;9.23;;;;;;;;;;4967744;28;20026;-75
2023/04/20 08:35:16;;;;;;;16.30;8.75;;;;;;;;;;4967220;28;20046;-74
2023/04/20 08:37:41;;;;;;;16.80;9.10;;;;;;;;;;4972282;28;20034;-73
2023/04/20 08:40:07;;;;;;;12.32;7.88;;;;;;;;;;4971763;28;20086;-75
2023/04/20 08:42:33;;;;;;;14.65;8.65;;;;;;;;;;4970929;28;20019;-74
2023/04/20 08:44:58;;;;;;;13.20;7.70;;;;;;;;;;4970824;28;20439;-75
2023/04/20 08:47:24;;;;;;;13.38;7.88;;;;;;;;;;4979269;28;20025;-75
2023/04/20 08:49:53;;;;;;;11.23;7.68;;;;;;;;;;4972801;28;20026;-74
2023/04/20 08:52:19;;;;;;;10.38;7.47;;;;;;;;;;4972368;28;20022;-74
2023/04/20 08:54:44;;;;;;;8.85;6.25;;;;;;;;;;4970700;28;20118;-75
2023/04/20 08:57:09;;;;;;;8.75;6.22;;;;;;;;;;4970767;28;20109;-74
2023/04/20 08:59:36;;;;;;;10.65;6.43;;;;;;;;;;4986878;28;20026;-75
2023/04/20 09:02:10;;;;;;;9.65;5.85;;;;;;;;;;4970996;28;20587;-75
2023/04/20 09:04:35;;;;;;;11.30;6.50;;;;;;;;;;4970842;28;20073;-75
2023/04/20 09:07:01;;;;;;;10.15;6.00;;;;;;;;;;4970600;28;20030;-75
2023/04/20 09:09:27;;;;;;;12.63;7.68;;;;;;;;;;4972089;28;20050;-75
2023/04/20 09:12:05;;;;;;;8.95;5.22;;;;;;;;;;4972731;28;20033;-75
2023/04/20 09:14:42;;;;;;;11.32;6.10;;;;;;;;;;4970148;28;20105;-75
2023/04/20 09:17:07;;;;;;;9.60;5.80;;;;;;;;;;4968715;28;20043;-75
2023/04/20 09:19:32;;;;;;;7.97;5.15;;;;;;;;;;4973817;28;20085;-74
2023/04/20 09:22:05;;;;;;;7.38;4.18;;;;;;;;;;4970817;28;20662;-74
2023/04/20 09:24:33;;;;;;;8.73;5.43;;;;;;;;;;4974458;28;20081;-75
2023/04/20 09:27:00;;;;;;;7.00;4.93;;;;;;;;;;4968243;28;20514;-74
2023/04/20 09:29:26;;;;;;;8.13;5.18;;;;;;;;;;4985542;28;20037;-73
2023/04/20 09:31:53;;;;;;;8.48;5.18;;;;;;;;;;4971933;28;20033;-75
2023/04/20 09:34:19;;;;;;;8.35;5.45;;;;;;;;;;4974457;28;20027;-75
2023/04/20 09:36:49;;;;;;;7.88;5.55;;;;;;;;;;4969326;28;20062;-75
2023/04/20 09:39:18;;;;;;;9.05;5.22;;;;;;;;;;4970263;28;20054;-75
2023/04/20 09:41:44;;;;;;;7.65;5.07;;;;;;;;;;4970606;28;20023;-74
2023/04/20 09:44:10;;;;;;;9.50;5.75;;;;;;;;;;4968604;28;20030;-74
2023/04/20 09:46:38;;;;;;;6.95;5.13;;;;;;;;;;4970879;28;20027;-75
2023/04/20 09:49:08;;;;;;;7.47;5.40;;;;;;;;;;4968986;28;20114;-74
2023/04/20 09:51:36;;;;;;;7.90;4.83;;;;;;;;;;4985755;28;20023;-74
2023/04/20 09:54:04;;;;;;;7.95;4.55;;;;;;;;;;4970620;28;20062;-75
2023/04/20 09:56:30;;;;;;;6.47;4.80;;;;;;;;;;4969131;28;20476;-75
2023/04/20 09:58:57;;;;;;;8.05;5.50;;;;;;;;;;4969275;28;20114;-75
2023/04/20 10:01:23;;;;;;;8.35;6.00;;;;;;;;;;4970390;28;20731;-74
2023/04/20 10:03:49;;;;;;;8.82;5.88;;;;;;;;;;4969883;28;20030;-75
2023/04/20 10:06:27;;;;;;;7.07;5.78;;;;;;;;;;4970038;28;20023;-74
2023/04/20 10:08:54;;;;;;;8.95;6.03;;;;;;;;;;4972707;28;20372;-74
2023/04/20 10:11:36;;;;;;;8.23;5.40;;;;;;;;;;4969258;28;20671;-74
2023/04/20 10:14:23;;;;;;;7.30;5.10;;;;;;;;;;4971788;28;20069;-74
2023/04/20 10:17:03;;;;;;;5.53;4.20;;;;;;;;;;4968357;28;20031;-76
2023/04/20 10:19:37;;;;;;;6.57;5.18;;;;;;;;;;4984654;28;20121;-75
2023/04/20 10:22:03;;;;;;;6.18;4.82;;;;;;;;;;4970622;28;20403;-75
2023/04/20 10:24:29;;;;;;;7.30;5.30;;;;;;;;;;4969672;28;20022;-76
2023/04/20 10:26:55;;;;;;;6.88;5.47;;;;;;;;;;4969883;28;20080;-75
2023/04/20 10:29:25;;;;;;;5.70;4.95;;;;;;;;;;4968149;28;20420;-75
2023/04/20 10:31:52;;;;;;;7.50;5.55;;;;;;;;;;4973720;28;20126;-75
2023/04/20 10:34:28;;;;;;;7.40;4.72;;;;;;;;;;4969332;28;20027;-75
2023/04/20 10:36:54;;;;;;;6.10;4.80;;;;;;;;;;4968415;28;20399;-75
2023/04/20 10:39:21;;;;;;;5.50;4.38;;;;;;;;;;4969293;28;20491;-75
2023/04/20 10:42:00;;;;;;;5.55;4.72;;;;;;;;;;4984812;28;20122;-76
2023/04/20 10:44:26;;;;;;;5.53;4.70;;;;;;;;;;4983494;28;20073;-76
2023/04/20 10:46:53;;;;;;;5.40;3.85;;;;;;;;;;4969285;28;20038;-76
2023/04/20 10:49:18;;;;;;;5.55;5.05;;;;;;;;;;4969354;28;20031;-76
2023/04/20 10:51:51;;;;;;;4.90;4.40;;;;;;;;;;4968815;28;20429;-76
2023/04/20 10:54:17;;;;;;;6.35;4.90;;;;;;;;;;4968273;28;20034;-75
2023/04/20 10:56:44;;;;;;;6.70;5.30;;;;;;;;;;4969125;28;20034;-76
2023/04/20 10:59:15;;;;;;;5.57;4.50;;;;;;;;;;4963960;28;20073;-75
2023/04/20 11:01:41;;;;;;;6.70;5.47;;;;;;;;;;4973461;28;20491;-76
2023/04/20 11:04:09;;;;;;;6.68;5.63;;;;;;;;;;4969927;28;20351;-75
2023/04/20 11:06:35;;;;;;;5.53;4.90;;;;;;;;;;4968735;28;20082;-75
2023/04/20 11:09:00;;;;;;;5.10;4.57;;;;;;;;;;4968845;28;20034;-76
2023/04/20 11:11:27;;;;;;;5.80;5.20;;;;;;;;;;4968339;28;20117;-76
2023/04/20 11:14:06;;;;;;;6.10;4.75;;;;;;;;;;4968450;28;20022;-75
2023/04/20 11:16:32;;;;;;;6.30;5.38;;;;;;;;;;4968495;28;20031;-75
2023/04/20 11:18:58;;;;;;;6.03;5.43;;;;;;;;;;4968627;28;20122;-75
2023/04/20 11:21:36;;;;;;;6.35;5.75;;;;;;;;;;4970890;28;20110;-76
2023/04/20 11:24:01;;;;;;;5.72;5.15;;;;;;;;;;4969061;28;20506;-76
2023/04/20 11:26:39;;;;;;;6.38;5.78;;;;;;;;;;4982188;28;20023;-75
2023/04/20 11:29:04;;;;;;;5.95;4.80;;;;;;;;;;4965535;28;20078;-74
2023/04/20 11:31:30;;;;;;;6.22;5.40;;;;;;;;;;4969167;28;20403;-75
2023/04/20 11:33:56;;;;;;;6.45;5.40;;;;;;;;;;4968390;28;20105;-75
2023/04/20 11:36:23;;;;;;;5.78;5.15;;;;;;;;;;4967358;28;20034;-76
2023/04/20 11:38:50;;;;;;;6.03;5.43;;;;;;;;;;4982596;28;20055;-76
2023/04/20 11:41:15;;;;;;;5.85;5.05;;;;;;;;;;4968001;28;20077;-76
2023/04/20 11:43:42;;;;;;;5.78;5.22;;;;;;;;;;4965671;28;20034;-75
2023/04/20 11:46:19;;;;;;;6.43;5.18;;;;;;;;;;4968552;28;20033;-74
2023/04/20 11:48:46;;;;;;;7.15;4.80;;;;;;;;;;4965505;28;20025;-75
2023/04/20 11:51:12;;;;;;;5.32;4.82;;;;;;;;;;4982052;28;20026;-75
2023/04/20 11:53:38;;;;;;;5.80;4.90;;;;;;;;;;4965590;28;20031;-74
2023/04/20 11:56:03;;;;;;;5.32;4.80;;;;;;;;;;4967201;28;20490;-75
2023/04/20 11:58:29;;;;;;;8.60;4.50;;;;;;;;;;4967067;28;20027;-75
2023/04/20 12:00:54;;;;;;;5.45;4.35;;;;;;;;;;4966734;28;20081;-75
2023/04/20 12:03:20;;;;;;;6.43;4.70;;;;;;;;;;4968191;28;20014;-74
2023/04/20 12:05:46;;;;;;;5.20;4.70;;;;;;;;;;4967067;28;20476;-74
2023/04/20 12:08:11;;;;;;;5.57;4.47;;;;;;;;;;4965281;28;20026;-75
2023/04/20 12:10:38;;;;;;;7.45;4.90;;;;;;;;;;4967467;28;20026;-75
2023/04/20 12:13:04;;;;;;;4.82;4.32;;;;;;;;;;4965245;28;20033;-76
2023/04/20 12:15:29;;;;;;;5.35;4.75;;;;;;;;;;4967589;28;20030;-75
2023/04/20 12:17:55;;;;;;;5.43;4.50;;;;;;;;;;4966830;28;20027;-75
2023/04/20 12:20:20;;;;;;;8.20;5.10;;;;;;;;;;4969107;28;20480;-75
2023/04/20 12:22:46;;;;;;;5.28;4.50;;;;;;;;;;4966327;28;20541;-75
2023/04/20 12:25:11;;;;;;;5.68;5.10;;;;;;;;;;4966671;28;20031;-73
2023/04/20 12:27:37;;;;;;;6.28;5.28;;;;;;;;;;4966981;28;20050;-74
2023/04/20 12:30:03;;;;;;;5.68;4.88;;;;;;;;;;4966873;28;20581;-75
2023/04/20 12:32:28;;;;;;;7.10;5.45;;;;;;;;;;4966361;28;20035;-74
2023/04/20 12:34:54;;;;;;;6.00;5.40;;;;;;;;;;4982172;28;20064;-74
2023/04/20 12:37:19;;;;;;;7.35;5.70;;;;;;;;;;4966648;28;20046;-75
2023/04/20 12:39:45;;;;;;;7.80;6.18;;;;;;;;;;4967234;28;20027;-75
2023/04/20 12:42:11;;;;;;;6.25;5.38;;;;;;;;;;4967144;28;20023;-75
2023/04/20 12:44:38;;;;;;;7.32;6.10;;;;;;;;;;4965938;28;20137;-75
2023/04/20 12:47:03;;;;;;;8.20;6.18;;;;;;;;;;4967009;28;20464;-75
2023/04/20 12:49:29;;;;;;;7.65;5.90;;;;;;;;;;4966994;28;20042;-75
2023/04/20 12:51:54;;;;;;;7.93;5.70;;;;;;;;;;4966575;28;20035;-75
2023/04/20 12:54:19;;;;;;;6.38;5.43;;;;;;;;;;4967353;28;20479;-74
2023/04/20 12:56:45;;;;;;;6.97;5.72;;;;;;;;;;4967028;28;20031;-74
2023/04/20 12:59:10;;;;;;;7.57;6.13;;;;;;;;;;4965775;28;20387;-74
2023/04/20 13:01:36;;;;;;;7.38;5.95;;;;;;;;;;4969647;28;20105;-75
2023/04/20 13:04:01;;;;;;;7.95;6.10;;;;;;;;;;4966138;28;20423;-74
2023/04/20 13:06:26;;;;;;;6.90;6.13;;;;;;;;;;4966401;28;20149;-74
2023/04/20 13:08:52;;;;;;;7.93;6.90;;;;;;;;;;4966660;28;20080;-75
2023/04/20 13:11:17;;;;;;;9.38;6.30;;;;;;;;;;4966776;28;20123;-74
2023/04/20 13:13:43;;;;;;;7.85;6.22;;;;;;;;;;4966838;28;20026;-74
2023/04/20 13:16:09;;;;;;;7.38;6.55;;;;;;;;;;4967332;28;20828;-73
2023/04/20 13:18:34;;;;;;;8.05;6.57;;;;;;;;;;4966587;28;20027;-74
2023/04/20 13:20:59;;;;;;;7.97;6.10;;;;;;;;;;4966026;28;20034;-74
2023/04/20 13:23:25;;;;;;;7.50;6.15;;;;;;;;;;4968084;28;20035;-75
2023/04/20 13:25:51;;;;;;;8.88;6.53;;;;;;;;;;4969198;28;20054;-75
2023/04/20 13:28:17;;;;;;;9.93;6.50;;;;;;;;;;4968664;28;20031;-76
2023/04/20 13:30:42;;;;;;;9.60;6.95;;;;;;;;;;4970064;28;20055;-76
2023/04/20 13:33:08;;;;;;;7.18;6.22;;;;;;;;;;4973537;28;20101;-75
2023/04/20 13:35:33;;;;;;;8.80;6.55;;;;;;;;;;4971110;28;20471;-75
2023/04/20 13:37:59;;;;;;;8.18;6.38;;;;;;;;;;4970747;28;20026;-75
2023/04/20 13:40:24;;;;;;;8.23;6.68;;;;;;;;;;4967890;28;20555;-76
2023/04/20 13:42:50;;;;;;;7.55;6.57;;;;;;;;;;4987638;28;20031;-76
2023/04/20 13:45:17;;;;;;;8.77;5.78;;;;;;;;;;4984225;28;20022;-75
2023/04/20 13:47:43;;;;;;;8.60;6.82;;;;;;;;;;4973347;28;20023;-75
2023/04/20 13:50:09;;;;;;;8.27;6.57;;;;;;;;;;4969022;28;20554;-76
2023/04/20 13:52:34;;;;;;;8.85;6.90;;;;;;;;;;4969891;28;20498;-77
2023/04/20 13:55:00;;;;;;;8.50;6.55;;;;;;;;;;4969303;28;20027;-77
2023/04/20 13:57:25;;;;;;;9.15;6.57;;;;;;;;;;4970904;28;20110;-76
2023/04/20 13:59:51;;;;;;;9.40;6.93;;;;;;;;;;4969952;28;20035;-77
2023/04/20 14:02:17;;;;;;;9.32;6.57;;;;;;;;;;4970290;28;20069;-76
2023/04/20 14:04:42;;;;;;;7.97;6.50;;;;;;;;;;4968612;28;20054;-75
2023/04/20 14:07:08;;;;;;;9.50;7.28;;;;;;;;;;4969351;28;20110;-76
2023/04/20 14:09:33;;;;;;;10.07;7.00;;;;;;;;;;4969344;28;20382;-76
2023/04/20 14:12:00;;;;;;;9.98;7.45;;;;;;;;;;4969217;28;20026;-76
2023/04/20 14:14:25;;;;;;;7.00;5.45;;;;;;;;;;4966973;28;20045;-75
2023/04/20 14:16:51;;;;;;;11.18;7.50;;;;;;;;;;4969379;28;20570;-76
2023/04/20 14:19:16;;;;;;;10.15;7.40;;;;;;;;;;4974223;28;20110;-76
2023/04/20 14:21:43;;;;;;;10.02;7.65;;;;;;;;;;4969288;28;20022;-76
2023/04/20 14:24:12;;;;;;;11.43;7.95;;;;;;;;;;4968485;28;20027;-76
2023/04/20 14:26:38;;;;;;;10.18;7.90;;;;;;;;;;4969536;28;20069;-76
2023/04/20 14:29:04;;;;;;;10.77;8.15;;;;;;;;;;4968959;28;20019;-76
2023/04/20 14:31:31;;;;;;;11.48;8.27;;;;;;;;;;4970122;28;20030;-76